Time;durP1;ratioP1;P1;durP2;ratioP2;P2;SDS_P1;SDS_P2;PMS_P1;PMS_P2;Temp;Humidity;BMP_temperature;BMP_pressure;BME280_temperature;BME280_humidity;BME280_pressure;Samples;Min_cycle;Max_cycle;Signal;HPM_P1;HPM_P2
2023/08/07 07:23:17;;;;;;;9.60;3.58;;;;;;;-145.79;84.02;77572.28;5315381;27;1315963;-77
2023/08/07 07:25:49;;;;;;;7.97;3.00;;;;;;;-145.79;84.23;77568.03;5331877;27;20032;-77
2023/08/07 07:28:22;;;;;;;11.30;3.47;;;;;;;-145.79;83.23;77568.03;5338843;28;20088;-77
2023/08/07 07:30:53;;;;;;;6.55;3.03;;;;;;;-145.79;82.14;77563.81;5336424;28;20023;-75
2023/08/07 07:33:31;;;;;;;7.38;3.20;;;;;;;-145.79;81.50;77557.44;5339717;27;20080;-76
2023/08/07 07:36:03;;;;;;;8.27;2.42;;;;;;;-145.79;81.38;77551.09;5340731;28;20456;-77
2023/08/07 07:38:37;;;;;;;8.18;3.65;;;;;;;-145.79;79.95;77546.84;5332154;27;20055;-77
2023/08/07 07:41:11;;;;;;;8.60;3.22;;;;;;;-145.79;79.17;77542.59;5329071;28;20475;-78
2023/08/07 07:43:42;;;;;;;8.88;2.30;;;;;;;-145.79;79.68;77538.38;5329878;28;20055;-77
2023/08/07 07:46:14;;;;;;;4.88;2.28;;;;;;;-145.79;78.62;77529.88;5335078;27;20517;-77
2023/08/07 07:48:45;;;;;;;5.32;2.60;;;;;;;-145.79;77.07;77523.53;5340119;27;20030;-75
2023/08/07 07:51:17;;;;;;;8.15;2.38;;;;;;;-145.79;76.26;77523.53;5341607;27;20020;-77
2023/08/07 07:53:48;;;;;;;8.30;2.72;;;;;;;-145.79;75.76;77519.28;5342794;27;20027;-76
2023/08/07 07:56:19;;;;;;;8.02;1.95;;;;;;;-145.79;77.29;77521.41;5341184;27;20027;-77
2023/08/07 07:58:51;;;;;;;7.28;2.67;;;;;;;-145.79;75.95;77525.66;5342230;27;20094;-77
2023/08/07 08:01:26;;;;;;;7.93;2.70;;;;;;;-145.79;76.38;77525.66;5334391;28;20016;-76
2023/08/07 08:03:57;;;;;;;6.93;2.60;;;;;;;-145.79;77.23;77517.16;5332706;27;20032;-77
2023/08/07 08:06:30;;;;;;;9.48;2.60;;;;;;;-145.79;76.03;77519.28;5331592;28;20027;-78
2023/08/07 08:09:04;;;;;;;4.85;2.80;;;;;;;-145.79;76.07;77519.28;5341876;28;20080;-77
2023/08/07 08:11:35;;;;;;;6.90;3.38;;;;;;;-145.79;75.78;77508.69;5336261;28;20401;-71
2023/08/07 08:14:07;;;;;;;12.55;2.42;;;;;;;-145.79;74.60;77495.97;5340869;28;20024;-80
2023/08/07 08:16:38;;;;;;;8.77;2.40;;;;;;;-145.79;75.19;77483.25;5339175;27;20039;-79
2023/08/07 08:19:10;;;;;;;9.93;2.65;;;;;;;-145.79;74.37;77483.25;5329679;28;20137;-81
2023/08/07 08:21:41;;;;;;;4.10;2.33;;;;;;;-145.79;75.20;77466.31;5332916;28;20062;-80
2023/08/07 08:24:13;;;;;;;8.45;2.65;;;;;;;-145.79;72.02;77462.06;5334615;27;20019;-80
2023/08/07 08:26:44;;;;;;;8.32;2.17;;;;;;;-145.79;71.54;77440.88;5329980;28;20111;-80
2023/08/07 08:29:16;;;;;;;6.35;2.35;;;;;;;-145.79;70.09;77438.75;5330126;28;20027;-80
2023/08/07 08:31:47;;;;;;;8.38;2.50;;;;;;;-145.79;68.62;77419.66;5332377;28;20055;-80
2023/08/07 08:34:19;;;;;;;4.40;2.25;;;;;;;-145.79;65.64;77419.66;5329159;27;20538;-80
2023/08/07 08:36:50;;;;;;;4.32;2.30;;;;;;;-145.79;62.92;77428.16;5313241;28;20028;-80
2023/08/07 08:39:22;;;;;;;7.38;2.20;;;;;;;-145.79;60.69;77419.66;5320050;27;20045;-80
2023/08/07 08:41:53;;;;;;;5.47;1.67;;;;;;;-145.79;62.17;77404.84;5316690;28;20474;-81
2023/08/07 08:44:28;;;;;;;5.68;2.03;;;;;;;-145.79;62.29;77409.06;5315624;28;20070;-79
2023/08/07 08:47:00;;;;;;;6.57;2.27;;;;;;;-145.79;62.24;77394.22;5317399;28;20024;-79
2023/08/07 08:49:37;;;;;;;5.82;2.28;;;;;;;-145.79;62.07;77396.34;5319509;28;20284;-79
2023/08/07 08:52:09;;;;;;;6.05;2.20;;;;;;;-145.79;61.95;77415.44;5311546;28;20494;-79
2023/08/07 08:54:40;;;;;;;7.45;2.22;;;;;;;-145.79;63.59;77419.66;5326535;28;20027;-79
2023/08/07 08:57:13;;;;;;;5.25;2.15;;;;;;;-145.79;63.66;77436.63;5316413;28;20035;-79
2023/08/07 08:59:44;;;;;;;6.28;2.20;;;;;;;-145.79;64.99;77426.03;5314899;28;20031;-81
2023/08/07 09:02:16;;;;;;;4.38;1.95;;;;;;;-145.79;62.43;77411.19;5316081;28;20035;-80
2023/08/07 09:04:48;;;;;;;4.72;2.00;;;;;;;-145.79;60.67;77394.22;5318905;28;20031;-79
2023/08/07 09:07:20;;;;;;;5.82;2.90;;;;;;;-145.79;59.19;77379.41;5315972;28;20078;-81
2023/08/07 09:09:51;;;;;;;5.13;1.83;;;;;;;-145.79;57.70;77373.03;5314173;28;20487;-81
2023/08/07 09:12:26;;;;;;;5.25;2.03;;;;;;;-145.79;57.64;77356.06;5316345;28;20356;-81
2023/08/07 09:14:58;;;;;;;4.93;2.25;;;;;;;-145.79;57.90;77356.06;5318163;27;20072;-81
2023/08/07 09:17:33;;;;;;;4.38;2.00;;;;;;;-145.79;59.12;77334.88;5318344;28;20030;-81
2023/08/07 09:20:06;;;;;;;9.10;2.22;;;;;;;-145.79;57.19;77341.25;5318855;28;20023;-81
2023/08/07 09:22:39;;;;;;;5.45;2.03;;;;;;;-145.79;58.06;77343.38;5317277;28;20054;-81
2023/08/07 09:25:10;;;;;;;6.20;2.20;;;;;;;-145.79;59.44;77353.97;5318650;28;20026;-80
2023/08/07 09:27:42;;;;;;;12.02;3.10;;;;;;;-145.79;59.27;77347.59;5313104;28;20028;-80
2023/08/07 09:30:15;;;;;;;5.38;2.22;;;;;;;-145.79;57.66;77334.88;5325371;28;20030;-81
2023/08/07 09:32:47;;;;;;;6.15;2.38;;;;;;;-145.79;55.80;77324.28;5326384;28;20032;-80
2023/08/07 09:35:22;;;;;;;5.15;1.95;;;;;;;-145.79;54.85;77324.28;5327284;28;20389;-80
2023/08/07 09:37:54;;;;;;;3.13;2.83;;;;;;;-145.79;56.13;77303.09;5314658;28;20110;-79
2023/08/07 09:40:25;;;;;;;4.18;2.15;;;;;;;-145.79;55.42;77296.72;5314290;28;20443;-80
2023/08/07 09:42:57;;;;;;;5.40;2.03;;;;;;;-145.79;54.98;77300.97;5315769;28;20036;-80
2023/08/07 09:45:30;;;;;;;7.57;3.63;;;;;;;-145.79;55.06;77305.22;5318280;28;20030;-80
2023/08/07 09:48:03;;;;;;;5.03;2.10;;;;;;;-145.79;56.65;77298.84;5318704;28;20024;-80
2023/08/07 09:50:34;;;;;;;7.57;2.40;;;;;;;-145.79;56.76;77322.16;5317530;28;20104;-78
2023/08/07 09:53:05;;;;;;;4.43;2.50;;;;;;;-145.79;57.06;77313.69;5315500;28;20479;-79
2023/08/07 09:55:37;;;;;;;9.05;2.15;;;;;;;-145.79;57.39;77300.97;5313900;28;20114;-79
2023/08/07 09:58:12;;;;;;;3.85;1.80;;;;;;;-145.79;53.82;77313.69;5314777;28;20429;-78
2023/08/07 10:00:46;;;;;;;3.38;1.95;;;;;;;-145.79;54.41;77298.84;5317918;28;20047;-80
2023/08/07 10:03:18;;;;;;;7.93;2.40;;;;;;;-145.79;53.24;77288.25;5317071;28;20032;-81
2023/08/07 10:05:50;;;;;;;6.28;2.38;;;;;;;-145.79;52.07;77273.41;5317117;28;20028;-81
2023/08/07 10:08:22;;;;;;;3.78;2.10;;;;;;;-145.79;50.25;77284.00;5315408;28;20114;-82
2023/08/07 10:10:54;;;;;;;6.03;2.13;;;;;;;-145.79;52.31;77260.69;5313572;28;20153;-81
2023/08/07 10:13:26;;;;;;;3.22;1.50;;;;;;;-145.79;51.93;77262.81;5315160;28;20117;-82
2023/08/07 10:15:58;;;;;;;4.80;1.70;;;;;;;-145.79;52.65;77284.00;5318097;28;20466;-81
2023/08/07 10:18:30;;;;;;;4.15;1.98;;;;;;;-145.79;51.75;77277.66;5309785;28;20471;-80
2023/08/07 10:21:05;;;;;;;2.45;1.42;;;;;;;-145.79;50.45;77313.69;5320003;28;20112;-79
2023/08/07 10:23:38;;;;;;;4.85;2.25;;;;;;;-145.79;50.10;77313.69;5322190;28;20032;-81
2023/08/07 10:26:11;;;;;;;6.25;2.97;;;;;;;-145.79;49.54;77292.50;5327701;28;20016;-80
2023/08/07 10:28:43;;;;;;;3.70;1.70;;;;;;;-145.79;50.00;77288.25;5317286;28;20107;-81
2023/08/07 10:31:15;;;;;;;4.18;1.52;;;;;;;-145.79;49.73;77273.41;5317420;28;20039;-78
2023/08/07 10:33:47;;;;;;;4.43;1.98;;;;;;;-145.79;48.93;77254.34;5316044;28;20107;-81
2023/08/07 10:36:19;;;;;;;7.78;3.95;;;;;;;-145.79;48.33;77254.34;5317402;28;20449;-80
2023/08/07 10:39:05;;;;;;;4.78;2.28;;;;;;;-145.79;49.76;77262.81;5314891;28;20387;-80
2023/08/07 10:41:44;;;;;;;2.25;1.70;;;;;;;-145.79;50.17;77264.94;5312191;28;20501;-80
2023/08/07 10:44:20;;;;;;;4.55;1.60;;;;;;;-145.79;50.28;77279.78;5312642;28;20059;-81
2023/08/07 10:46:54;;;;;;;5.15;2.63;;;;;;;-145.79;50.57;77286.13;5312980;28;20119;-80
2023/08/07 10:49:37;;;;;;;3.67;2.08;;;;;;;-145.79;50.23;77284.00;5317095;28;20020;-81
2023/08/07 10:52:12;;;;;;;5.15;2.10;;;;;;;-145.79;50.34;77288.25;5316492;28;20035;-76
2023/08/07 10:54:49;;;;;;;5.40;2.00;;;;;;;-145.79;50.23;77262.81;5322616;28;20038;-77
2023/08/07 10:57:22;;;;;;;4.03;1.88;;;;;;;-145.79;50.99;77233.16;5323770;28;20029;-76
2023/08/07 10:59:57;;;;;;;5.68;1.98;;;;;;;-145.79;49.92;77228.91;5324126;28;20054;-76
2023/08/07 11:02:30;;;;;;;3.50;1.67;;;;;;;-145.79;49.51;77218.31;5323914;28;20081;-76
2023/08/07 11:05:03;;;;;;;4.10;2.03;;;;;;;-145.79;48.14;77254.34;5310956;28;20047;-77
2023/08/07 11:07:40;;;;;;;11.07;8.48;;;;;;;-145.79;48.37;77254.34;5311849;28;20028;-78
2023/08/07 11:10:16;;;;;;;39.13;31.23;;;;;;;-145.79;49.07;77247.97;5317860;28;20070;-77
2023/08/07 11:12:48;;;;;;;5.20;3.28;;;;;;;-145.79;48.09;77254.34;5312539;28;20037;-77
2023/08/07 11:15:20;;;;;;;5.38;2.05;;;;;;;-145.79;48.74;77216.19;5312705;28;20103;-75
2023/08/07 11:17:52;;;;;;;3.00;2.28;;;;;;;-145.79;49.33;77190.75;5316245;28;20020;-76
2023/08/07 11:20:25;;;;;;;4.47;1.80;;;;;;;-145.79;48.68;77201.34;5315847;28;20077;-77
2023/08/07 11:22:59;;;;;;;2.80;1.63;;;;;;;-145.79;49.04;77190.75;5318224;28;20044;-77
2023/08/07 11:25:30;;;;;;;6.65;2.17;;;;;;;-145.79;49.25;77216.19;5313511;28;20031;-77
2023/08/07 11:28:01;;;;;;;3.78;2.03;;;;;;;-145.79;50.54;77233.16;5314444;28;20102;-75
2023/08/07 11:30:33;;;;;;;6.47;2.53;;;;;;;-145.79;51.54;77228.91;5312298;28;20055;-73
2023/08/07 11:33:05;;;;;;;4.53;2.55;;;;;;;-145.79;51.52;77216.19;5316014;28;20470;-73
2023/08/07 11:35:42;;;;;;;5.18;2.10;;;;;;;-145.79;51.33;77203.47;5314173;28;20031;-73
2023/08/07 11:38:29;;;;;;;6.85;2.20;;;;;;;-145.79;51.72;77158.97;5319154;28;20049;-77
2023/08/07 11:41:05;;;;;;;4.75;2.10;;;;;;;-145.79;51.42;77156.84;5312505;28;20062;-73
2023/08/07 11:43:38;;;;;;;4.55;2.65;;;;;;;-145.79;52.40;77165.31;5311709;28;20055;-73
2023/08/07 11:46:13;;;;;;;4.47;2.28;;;;;;;-145.79;52.93;77165.31;5319343;28;20054;-73
2023/08/07 11:48:44;;;;;;;4.30;2.33;;;;;;;-145.79;51.03;77178.03;5316146;28;20044;-73
2023/08/07 11:51:16;;;;;;;3.47;1.80;;;;;;;-145.79;52.10;77152.59;5314892;28;20149;-73
2023/08/07 11:53:47;;;;;;;4.43;2.28;;;;;;;-145.79;51.46;77148.34;5315215;28;20031;-73
2023/08/07 11:56:19;;;;;;;5.00;2.67;;;;;;;-145.79;49.71;77169.56;5324099;28;20024;-73
2023/08/07 11:58:53;;;;;;;6.65;3.13;;;;;;;-145.79;51.59;77182.28;5315107;28;20032;-76
2023/08/07 12:01:26;;;;;;;4.85;2.28;;;;;;;-145.79;50.38;77184.41;5312470;28;20077;-73
2023/08/07 12:04:07;;;;;;;4.97;2.30;;;;;;;-145.79;50.97;77156.84;5322964;28;20027;-72
2023/08/07 12:06:53;;;;;;;5.00;2.03;;;;;;;-145.79;51.22;77178.03;5317163;28;20027;-73
2023/08/07 12:09:28;;;;;;;3.33;2.22;;;;;;;-145.79;51.61;77190.75;5323190;28;20031;-74
2023/08/07 12:11:59;;;;;;;4.45;2.95;;;;;;;-145.79;52.07;77192.88;5318837;28;20035;-73
2023/08/07 12:14:31;;;;;;;7.65;3.05;;;;;;;-145.79;52.65;77233.16;5317145;28;20023;-75
2023/08/07 12:17:03;;;;;;;5.00;2.80;;;;;;;-145.79;53.05;77241.63;5316287;28;20024;-75
2023/08/07 12:19:42;;;;;;;6.97;2.45;;;;;;;-145.79;56.06;77250.09;5317261;28;20111;-75
2023/08/07 12:22:19;;;;;;;7.40;2.78;;;;;;;-145.79;59.39;77252.22;5322740;28;20089;-75
2023/08/07 12:24:50;;;;;;;7.47;3.70;;;;;;;-145.79;61.43;77256.47;5318291;28;20042;-75
2023/08/07 12:27:22;;;;;;;5.38;2.97;;;;;;;-145.79;61.44;77216.19;5321665;28;20040;-75
2023/08/07 12:29:53;;;;;;;3.63;2.40;;;;;;;-145.79;61.64;77180.16;5327636;28;20130;-75
2023/08/07 12:32:25;;;;;;;8.95;3.85;;;;;;;-145.79;61.04;77169.56;5318028;28;20046;-74
2023/08/07 12:34:56;;;;;;;5.47;2.33;;;;;;;-145.79;60.10;77186.50;5319397;28;20023;-73
2023/08/07 12:37:27;;;;;;;4.80;2.30;;;;;;;-145.79;60.58;77209.81;5318193;28;20486;-75
2023/08/07 12:39:59;;;;;;;6.93;2.60;;;;;;;-145.79;61.36;77250.09;5317025;28;20034;-75
2023/08/07 12:42:30;;;;;;;6.30;2.83;;;;;;;-145.79;60.88;77256.47;5318549;28;20028;-73
2023/08/07 12:45:02;;;;;;;7.90;3.13;;;;;;;-145.79;63.00;77292.50;5318645;28;20024;-74
2023/08/07 12:47:33;;;;;;;4.47;3.55;;;;;;;-145.79;63.22;77292.50;5318287;28;20073;-74
2023/08/07 12:50:06;;;;;;;5.85;3.35;;;;;;;-145.79;63.83;77303.09;5323685;28;20039;-76
2023/08/07 12:52:37;;;;;;;4.63;2.60;;;;;;;-145.79;63.33;77309.44;5326766;28;20096;-74
2023/08/07 12:55:10;;;;;;;5.63;2.80;;;;;;;-145.79;64.17;77292.50;5316073;28;20032;-76
2023/08/07 12:57:45;;;;;;;5.45;2.67;;;;;;;-145.79;62.84;77250.09;5327262;28;20035;-75
2023/08/07 13:00:17;;;;;;;7.18;2.55;;;;;;;-145.79;61.54;77231.03;5317287;28;20039;-75
2023/08/07 13:02:50;;;;;;;6.10;3.08;;;;;;;-145.79;61.70;77250.09;5325672;28;20035;-74
2023/08/07 13:05:22;;;;;;;5.63;2.40;;;;;;;-145.79;62.84;77228.91;5327509;28;20027;-74
2023/08/07 13:07:54;;;;;;;5.63;2.50;;;;;;;-145.79;62.41;77258.56;5325577;28;20026;-74
2023/08/07 13:10:31;;;;;;;5.38;4.05;;;;;;;-145.79;61.97;77262.81;5317759;28;20028;-75
2023/08/07 13:13:04;;;;;;;5.97;3.17;;;;;;;-145.79;61.77;77224.66;5317563;28;20036;-75
2023/08/07 13:15:36;;;;;;;5.88;3.20;;;;;;;-145.79;62.03;77207.72;5314306;28;20020;-73
2023/08/07 13:18:07;;;;;;;4.45;2.58;;;;;;;-145.79;60.76;77163.19;5314373;28;20028;-73
2023/08/07 13:20:38;;;;;;;3.25;2.28;;;;;;;-145.79;58.56;77178.03;5321286;28;20011;-74
2023/08/07 13:23:10;;;;;;;4.22;2.00;;;;;;;-145.79;55.99;77169.56;5325104;28;20458;-75
2023/08/07 13:25:41;;;;;;;6.60;3.30;;;;;;;-145.79;56.16;77163.19;5315000;28;20028;-74
2023/08/07 13:28:12;;;;;;;6.63;2.20;;;;;;;-145.79;57.26;77175.91;5319292;28;20028;-76
2023/08/07 13:30:44;;;;;;;5.05;2.25;;;;;;;-145.79;57.87;77171.69;5322277;28;20028;-76
2023/08/07 13:33:15;;;;;;;3.20;2.28;;;;;;;-145.79;56.74;77199.22;5326595;28;20035;-78
2023/08/07 13:35:47;;;;;;;3.70;2.15;;;;;;;-145.79;57.33;77195.00;5315003;28;20092;-74
2023/08/07 13:38:18;;;;;;;3.50;2.60;;;;;;;-145.79;57.33;77190.75;5322467;28;20030;-75
2023/08/07 13:40:50;;;;;;;4.78;2.42;;;;;;;-145.79;57.47;77175.91;5316549;28;20099;-74
2023/08/07 13:43:22;;;;;;;2.92;2.10;;;;;;;-145.79;57.40;77201.34;5317840;28;20077;-74
2023/08/07 13:45:53;;;;;;;2.95;2.03;;;;;;;-145.79;58.44;77207.72;5324621;28;20035;-76
2023/08/07 13:48:26;;;;;;;3.70;2.30;;;;;;;-145.79;59.13;77195.00;5319197;28;20023;-75
2023/08/07 13:50:57;;;;;;;4.88;2.65;;;;;;;-145.79;58.22;77197.09;5315894;28;20441;-75
2023/08/07 13:53:29;;;;;;;4.57;2.10;;;;;;;-145.79;58.28;77216.19;5319929;28;20123;-76
2023/08/07 13:56:00;;;;;;;6.95;3.85;;;;;;;-145.79;58.49;77235.25;5317353;28;20047;-76
2023/08/07 13:58:31;;;;;;;5.55;4.80;;;;;;;-145.79;58.96;77235.25;5324834;28;20118;-77
2023/08/07 14:01:04;;;;;;;4.78;2.80;;;;;;;-145.79;59.16;77237.38;5323905;28;20036;-76
2023/08/07 14:03:35;;;;;;;4.20;2.03;;;;;;;-145.79;59.82;77241.63;5324919;28;20052;-76
2023/08/07 14:06:06;;;;;;;4.57;2.20;;;;;;;-145.79;61.01;77241.63;5325443;27;20028;-75
2023/08/07 14:08:38;;;;;;;3.65;3.20;;;;;;;-145.79;61.32;77235.25;5316921;28;20462;-75
2023/08/07 14:11:09;;;;;;;3.75;2.38;;;;;;;-145.79;61.21;77252.22;5320189;28;20107;-74
2023/08/07 14:13:41;;;;;;;5.07;2.22;;;;;;;-145.79;60.31;77279.78;5325393;28;20511;-76
2023/08/07 14:16:12;;;;;;;4.45;2.50;;;;;;;-145.79;61.35;77275.53;5320811;28;20024;-75
2023/08/07 14:18:43;;;;;;;3.15;2.30;;;;;;;-145.79;61.35;77279.78;5316316;28;20470;-74
2023/08/07 14:21:15;;;;;;;3.15;2.35;;;;;;;-145.79;61.55;77288.25;5317048;28;20027;-75
2023/08/07 14:23:48;;;;;;;5.10;2.20;;;;;;;-145.79;61.56;77288.25;5323019;28;20458;-76
2023/08/07 14:26:20;;;;;;;3.08;1.98;;;;;;;-145.79;60.09;77241.63;5316042;27;20084;-75
2023/08/07 14:28:52;;;;;;;5.50;2.58;;;;;;;-145.79;60.36;77211.94;5323674;28;20028;-76
2023/08/07 14:31:23;;;;;;;2.92;2.08;;;;;;;-145.79;60.15;77245.84;5322501;28;20119;-77
2023/08/07 14:33:54;;;;;;;3.05;2.10;;;;;;;-145.79;60.31;77239.50;5318509;28;20483;-75
2023/08/07 14:36:26;;;;;;;3.15;2.10;;;;;;;-145.79;61.07;77235.25;5325418;28;20028;-75
2023/08/07 14:38:57;;;;;;;7.25;2.70;;;;;;;-145.79;61.10;77203.47;5315001;28;20063;-76
2023/08/07 14:41:28;;;;;;;6.10;2.60;;;;;;;-145.79;61.40;77222.53;5321831;28;20020;-76
2023/08/07 14:44:00;;;;;;;5.05;2.35;;;;;;;-145.79;60.63;77216.19;5322526;28;20024;-75
2023/08/07 14:46:31;;;;;;;3.58;2.00;;;;;;;-145.79;61.29;77203.47;5317083;28;20164;-76
2023/08/07 14:49:03;;;;;;;5.47;2.40;;;;;;;-145.79;60.49;77209.81;5323958;28;20103;-76
2023/08/07 14:51:34;;;;;;;4.32;1.90;;;;;;;-145.79;59.96;77224.66;5316941;28;20170;-76
2023/08/07 14:54:05;;;;;;;5.50;2.08;;;;;;;-145.79;59.52;77256.47;5313868;28;20023;-76
2023/08/07 14:56:37;;;;;;;3.22;1.80;;;;;;;-145.79;58.64;77241.63;5316198;28;20104;-76
2023/08/07 14:59:08;;;;;;;39.45;35.63;;;;;;;-145.79;57.77;77233.16;5314265;28;20161;-75
2023/08/07 15:01:39;;;;;;;3.67;3.30;;;;;;;-145.79;57.53;77224.66;5322816;28;20026;-75
2023/08/07 15:04:11;;;;;;;3.78;1.65;;;;;;;-145.79;56.92;77233.16;5315188;28;20031;-76
2023/08/07 15:06:42;;;;;;;3.53;1.90;;;;;;;-145.79;57.03;77220.44;5311579;28;20027;-74
2023/08/07 15:09:14;;;;;;;2.13;1.90;;;;;;;-145.79;58.29;77207.72;5322917;28;20059;-75
2023/08/07 15:11:46;;;;;;;3.13;2.17;;;;;;;-145.79;57.40;77220.44;5311827;28;20487;-75
2023/08/07 15:14:18;;;;;;;1.58;1.48;;;;;;;-145.79;57.29;77228.91;5312865;28;20020;-77
2023/08/07 15:16:49;;;;;;;2.33;1.60;;;;;;;-145.79;57.47;77220.44;5316288;28;20539;-77
2023/08/07 15:19:21;;;;;;;2.92;1.40;;;;;;;-145.79;57.79;77205.59;5324274;28;20066;-76
2023/08/07 15:21:52;;;;;;;2.70;1.90;;;;;;;-145.79;57.51;77199.22;5321016;28;20032;-76
2023/08/07 15:24:24;;;;;;;3.25;1.70;;;;;;;-145.79;57.58;77190.75;5311715;28;20059;-75
2023/08/07 15:26:55;;;;;;;1.70;1.45;;;;;;;-145.79;58.10;77197.09;5316522;28;20024;-77
2023/08/07 15:29:26;;;;;;;5.22;1.90;;;;;;;-145.79;57.74;77186.50;5315981;28;20040;-76
2023/08/07 15:31:58;;;;;;;1.95;1.58;;;;;;;-145.79;56.98;77195.00;5312588;28;20024;-77
2023/08/07 15:34:29;;;;;;;6.18;4.20;;;;;;;-145.79;57.00;77201.34;5312780;28;20085;-79
2023/08/07 15:37:00;;;;;;;3.67;1.90;;;;;;;-145.79;57.14;77190.75;5323760;28;20028;-80
2023/08/07 15:39:32;;;;;;;2.65;1.67;;;;;;;-145.79;56.99;77186.50;5316776;28;20019;-80
2023/08/07 15:42:03;;;;;;;4.47;2.25;;;;;;;-145.79;57.20;77178.03;5322764;28;20397;-76
2023/08/07 15:44:35;;;;;;;3.67;2.05;;;;;;;-145.79;56.27;77163.19;5322357;28;20496;-77
2023/08/07 15:47:06;;;;;;;3.42;1.58;;;;;;;-145.79;56.72;77150.47;5329421;28;20024;-77
2023/08/07 15:49:37;;;;;;;2.33;1.60;;;;;;;-145.79;55.04;77148.34;5332306;28;20055;-77
2023/08/07 15:52:09;;;;;;;3.10;1.38;;;;;;;-145.79;53.98;77148.34;5329815;28;20366;-76
2023/08/07 15:54:42;;;;;;;1.52;1.42;;;;;;;-145.79;53.83;77152.59;5322210;28;20038;-76
2023/08/07 15:57:14;;;;;;;3.15;1.52;;;;;;;-145.79;53.82;77158.97;5323886;28;20019;-77
2023/08/07 15:59:45;;;;;;;2.55;1.52;;;;;;;-145.79;53.68;77169.56;5321451;28;20489;-80
2023/08/07 16:02:17;;;;;;;2.90;1.50;;;;;;;-145.79;54.68;77173.78;5327225;28;20111;-82
2023/08/07 16:04:48;;;;;;;1.98;1.48;;;;;;;-145.79;55.50;77205.59;5321890;28;20055;-81
2023/08/07 16:07:19;;;;;;;2.17;1.60;;;;;;;-145.79;56.46;77203.47;5318368;28;20035;-81
2023/08/07 16:09:51;;;;;;;1.75;1.30;;;;;;;-145.79;56.56;77178.03;5319628;28;20047;-82
2023/08/07 16:12:22;;;;;;;1.88;1.45;;;;;;;-145.79;56.23;77167.44;5318036;28;20032;-82
2023/08/07 16:14:55;;;;;;;3.67;1.35;;;;;;;-145.79;55.63;77169.56;5321491;28;20031;-82
2023/08/07 16:17:29;;;;;;;3.08;1.52;;;;;;;-145.79;56.36;77158.97;5317537;28;20395;-82
2023/08/07 16:20:00;;;;;;;2.45;1.80;;;;;;;-145.79;56.42;77158.97;5320611;28;20032;-82
2023/08/07 16:22:31;;;;;;;2.05;1.30;;;;;;;-145.79;56.41;77169.56;5323880;28;20159;-82
2023/08/07 16:25:05;;;;;;;2.35;1.40;;;;;;;-145.79;56.49;77129.28;5315462;28;20024;-82
2023/08/07 16:27:38;;;;;;;2.55;1.38;;;;;;;-145.79;56.79;77131.41;5318221;28;20531;-81
2023/08/07 16:30:09;;;;;;;2.55;1.58;;;;;;;-145.79;56.88;77118.69;5320358;28;20032;-82
2023/08/07 16:32:40;;;;;;;5.40;2.63;;;;;;;-145.79;56.32;77116.56;5312709;27;20075;-77
2023/08/07 16:35:12;;;;;;;3.35;1.45;;;;;;;-145.79;55.72;77097.50;5319893;28;20080;-82
2023/08/07 16:37:44;;;;;;;3.05;1.48;;;;;;;-145.79;55.67;77074.19;5318377;28;20102;-82
2023/08/07 16:40:15;;;;;;;1.85;1.27;;;;;;;-145.79;54.97;77059.34;5314789;28;20024;-81
2023/08/07 16:42:47;;;;;;;3.22;1.50;;;;;;;-145.79;55.15;77078.41;5316595;28;20032;-80
2023/08/07 16:45:19;;;;;;;1.33;1.17;;;;;;;-145.79;55.35;77072.06;5322120;28;20080;-82
2023/08/07 16:47:50;;;;;;;2.90;1.40;;;;;;;-145.79;54.92;77065.69;5315408;28;20027;-81
2023/08/07 16:50:23;;;;;;;2.70;1.20;;;;;;;-145.79;55.89;77114.44;5312966;28;20028;-82
2023/08/07 16:52:57;;;;;;;1.83;1.10;;;;;;;-145.79;55.89;77114.44;5317825;27;20396;-82
